Time;durP1;ratioP1;P1;durP2;ratioP2;P2;SDS_P1;SDS_P2;PMS_P1;PMS_P2;Temp;Humidity;BMP_temperature;BMP_pressure;BME280_temperature;BME280_humidity;BME280_pressure;Samples;Min_cycle;Max_cycle;Signal;HPM_P1;HPM_P2
2022/12/08 00:01:58;;;;;;;15.50;7.07;;;;;;;;;;5073686;28;20405;-74
2022/12/08 00:04:24;;;;;;;12.43;6.38;;;;;;;;;;5073678;28;20027;-73
2022/12/08 00:09:39;;;;;;;13.95;6.18;;;;;;;;;;5073727;28;20520;-73
2022/12/08 00:12:08;;;;;;;10.67;5.73;;;;;;;;;;5073613;28;20477;-74
2022/12/08 00:14:37;;;;;;;10.45;5.07;;;;;;;;;;5073866;28;20036;-73
2022/12/08 00:17:05;;;;;;;10.68;6.15;;;;;;;;;;5073797;28;20035;-74
2022/12/08 00:19:31;;;;;;;11.93;6.10;;;;;;;;;;5073106;28;20035;-74
2022/12/08 00:21:57;;;;;;;9.35;5.68;;;;;;;;;;5073338;28;20039;-74
2022/12/08 00:24:25;;;;;;;10.93;5.57;;;;;;;;;;5073360;28;20020;-74
2022/12/08 00:26:51;;;;;;;11.30;5.57;;;;;;;;;;5073276;28;20035;-74
2022/12/08 00:29:17;;;;;;;9.35;5.55;;;;;;;;;;5073230;28;20033;-74
2022/12/08 00:31:44;;;;;;;12.63;6.00;;;;;;;;;;5071911;28;20032;-74
2022/12/08 00:34:11;;;;;;;10.30;5.80;;;;;;;;;;5073557;28;20021;-74
2022/12/08 00:36:38;;;;;;;11.10;5.20;;;;;;;;;;5073168;28;20031;-74
2022/12/08 00:39:04;;;;;;;11.77;6.50;;;;;;;;;;5073013;28;20036;-74
2022/12/08 00:44:17;;;;;;;11.52;5.97;;;;;;;;;;5072908;28;20073;-74
2022/12/08 00:46:44;;;;;;;15.00;6.15;;;;;;;;;;5072800;28;20045;-74
2022/12/08 00:49:10;;;;;;;10.63;5.72;;;;;;;;;;5072925;28;20482;-74
2022/12/08 00:51:37;;;;;;;16.85;7.78;;;;;;;;;;5073058;28;20043;-74
2022/12/08 00:54:04;;;;;;;18.13;7.95;;;;;;;;;;5072970;28;20043;-73
2022/12/08 00:56:30;;;;;;;20.52;8.75;;;;;;;;;;5073104;28;20020;-74
2022/12/08 00:58:57;;;;;;;19.90;8.48;;;;;;;;;;5072373;28;20016;-74
2022/12/08 01:01:23;;;;;;;18.23;8.52;;;;;;;;;;5071975;28;20029;-74
2022/12/08 01:03:50;;;;;;;19.10;8.75;;;;;;;;;;5072496;28;20401;-74
2022/12/08 01:06:16;;;;;;;17.50;8.23;;;;;;;;;;5072571;28;20401;-74
2022/12/08 01:08:43;;;;;;;14.82;6.88;;;;;;;;;;5088425;28;20025;-74
2022/12/08 01:11:10;;;;;;;11.77;6.30;;;;;;;;;;5072422;28;20066;-74
2022/12/08 01:13:37;;;;;;;12.77;6.22;;;;;;;;;;5072567;28;20501;-74
2022/12/08 01:16:03;;;;;;;11.45;5.80;;;;;;;;;;5072140;28;20038;-74
2022/12/08 01:18:30;;;;;;;9.38;5.50;;;;;;;;;;5072404;28;20016;-74
2022/12/08 01:21:01;;;;;;;13.35;5.80;;;;;;;;;;5072102;28;20086;-74
2022/12/08 01:23:28;;;;;;;9.50;5.20;;;;;;;;;;5072570;28;20031;-74
2022/12/08 01:25:54;;;;;;;9.30;5.13;;;;;;;;;;5072270;28;20039;-73
2022/12/08 01:28:20;;;;;;;9.40;5.43;;;;;;;;;;5071407;28;20073;-74
2022/12/08 01:30:46;;;;;;;9.98;4.75;;;;;;;;;;5070409;28;20031;-74
2022/12/08 01:33:13;;;;;;;10.38;4.97;;;;;;;;;;5072138;28;20027;-74
2022/12/08 01:35:39;;;;;;;8.68;5.07;;;;;;;;;;5072270;28;20025;-74
2022/12/08 01:38:06;;;;;;;9.38;4.80;;;;;;;;;;5072038;28;20044;-74
2022/12/08 01:40:32;;;;;;;9.85;5.13;;;;;;;;;;5071892;28;20033;-74
2022/12/08 01:42:58;;;;;;;7.60;5.10;;;;;;;;;;5072244;28;20019;-74
2022/12/08 01:45:26;;;;;;;10.93;6.20;;;;;;;;;;5071993;28;20034;-74
2022/12/08 01:47:54;;;;;;;11.38;6.10;;;;;;;;;;5072052;28;20017;-74
2022/12/08 01:50:21;;;;;;;14.00;7.20;;;;;;;;;;5072118;28;20048;-74
2022/12/08 01:52:50;;;;;;;12.32;6.93;;;;;;;;;;5072255;28;20035;-74
2022/12/08 01:55:16;;;;;;;13.52;7.15;;;;;;;;;;5072234;28;20024;-74
2022/12/08 01:57:45;;;;;;;13.30;7.45;;;;;;;;;;5071777;28;20035;-74
2022/12/08 02:00:13;;;;;;;15.30;7.85;;;;;;;;;;5071603;28;20032;-74
2022/12/08 02:02:46;;;;;;;13.88;7.60;;;;;;;;;;5071786;28;20013;-74
2022/12/08 02:05:13;;;;;;;14.13;7.90;;;;;;;;;;5071874;28;20028;-74
2022/12/08 02:07:39;;;;;;;11.98;6.22;;;;;;;;;;5071831;28;20019;-74
2022/12/08 02:10:06;;;;;;;12.73;6.68;;;;;;;;;;5071794;28;20021;-74
2022/12/08 02:12:32;;;;;;;11.27;5.63;;;;;;;;;;5075647;28;20044;-74
2022/12/08 02:14:59;;;;;;;12.07;6.25;;;;;;;;;;5075556;28;20467;-74
2022/12/08 02:17:39;;;;;;;11.52;5.72;;;;;;;;;;5075617;28;20446;-74
2022/12/08 02:20:30;;;;;;;10.23;5.50;;;;;;;;;;5075925;28;20045;-73
2022/12/08 02:23:02;;;;;;;11.03;5.60;;;;;;;;;;5075918;28;20035;-73
2022/12/08 02:25:39;;;;;;;7.93;4.90;;;;;;;;;;5075701;28;20031;-73
2022/12/08 02:28:20;;;;;;;8.40;4.93;;;;;;;;;;5075163;28;20021;-74
2022/12/08 02:30:53;;;;;;;11.35;5.30;;;;;;;;;;5075472;28;20058;-73
2022/12/08 02:33:22;;;;;;;8.55;5.00;;;;;;;;;;5074219;28;20500;-74
2022/12/08 02:35:56;;;;;;;8.27;4.63;;;;;;;;;;5075662;28;20021;-74
2022/12/08 02:38:22;;;;;;;6.88;4.75;;;;;;;;;;5075073;28;20551;-74
2022/12/08 02:40:59;;;;;;;10.65;5.03;;;;;;;;;;5075189;28;20048;-74
2022/12/08 02:43:35;;;;;;;7.55;4.60;;;;;;;;;;5074822;28;20035;-74
2022/12/08 02:46:04;;;;;;;7.90;4.60;;;;;;;;;;5075436;28;20039;-74
2022/12/08 02:48:32;;;;;;;9.38;4.72;;;;;;;;;;5075139;28;20017;-74
2022/12/08 02:50:59;;;;;;;9.93;5.00;;;;;;;;;;5075234;28;20028;-74
2022/12/08 02:53:27;;;;;;;9.10;4.68;;;;;;;;;;5075101;28;20023;-73
2022/12/08 02:56:02;;;;;;;10.13;4.72;;;;;;;;;;5075310;28;20036;-73
2022/12/08 02:58:34;;;;;;;9.05;5.10;;;;;;;;;;5074830;28;20066;-74
2022/12/08 03:01:03;;;;;;;8.90;5.40;;;;;;;;;;5074979;28;20032;-74
2022/12/08 03:03:55;;;;;;;9.27;4.43;;;;;;;;;;5074946;28;20025;-74
2022/12/08 03:06:29;;;;;;;7.88;4.75;;;;;;;;;;5072773;28;20043;-74
2022/12/08 03:09:02;;;;;;;9.13;4.97;;;;;;;;;;5075004;28;20485;-74
2022/12/08 03:11:33;;;;;;;9.38;4.90;;;;;;;;;;5074183;28;20020;-74
2022/12/08 03:14:01;;;;;;;8.50;4.57;;;;;;;;;;5074666;28;20029;-74
2022/12/08 03:16:29;;;;;;;9.18;3.92;;;;;;;;;;5073313;28;20032;-74
2022/12/08 03:19:06;;;;;;;10.90;4.38;;;;;;;;;;5074623;28;20034;-74
2022/12/08 03:21:33;;;;;;;12.02;4.50;;;;;;;;;;5074297;28;20040;-74
2022/12/08 03:24:01;;;;;;;8.55;4.68;;;;;;;;;;5073644;28;20054;-73
2022/12/08 03:26:34;;;;;;;9.65;5.13;;;;;;;;;;5072905;28;20032;-74
2022/12/08 03:29:00;;;;;;;11.15;4.78;;;;;;;;;;5074641;28;20025;-74
2022/12/08 03:31:29;;;;;;;8.35;4.80;;;;;;;;;;5074614;28;20095;-74
2022/12/08 03:33:58;;;;;;;8.75;4.82;;;;;;;;;;5073266;28;20020;-74
2022/12/08 03:36:24;;;;;;;8.00;3.92;;;;;;;;;;5074360;28;20508;-74
2022/12/08 03:38:52;;;;;;;6.47;4.00;;;;;;;;;;5074121;28;20050;-74
2022/12/08 03:41:19;;;;;;;11.10;4.03;;;;;;;;;;5073622;28;20081;-74
2022/12/08 03:43:49;;;;;;;7.57;3.88;;;;;;;;;;5074167;28;20021;-74
2022/12/08 03:46:17;;;;;;;7.90;3.75;;;;;;;;;;5074465;28;20040;-74
2022/12/08 03:48:43;;;;;;;8.23;4.53;;;;;;;;;;5074022;28;20017;-74
2022/12/08 03:51:10;;;;;;;7.40;4.38;;;;;;;;;;5074113;28;20031;-74
2022/12/08 03:53:36;;;;;;;12.20;5.95;;;;;;;;;;5074091;28;20381;-74
2022/12/08 03:56:04;;;;;;;11.65;5.60;;;;;;;;;;5073841;28;20035;-74
2022/12/08 03:58:31;;;;;;;11.32;5.40;;;;;;;;;;5074071;28;20024;-74
2022/12/08 04:00:57;;;;;;;7.90;5.07;;;;;;;;;;5073963;28;20035;-74
2022/12/08 04:03:23;;;;;;;9.13;5.18;;;;;;;;;;5073794;28;20028;-73
2022/12/08 04:05:50;;;;;;;11.60;5.97;;;;;;;;;;5073587;28;20393;-73
2022/12/08 04:08:16;;;;;;;10.85;5.88;;;;;;;;;;5073760;28;20462;-73
2022/12/08 04:10:42;;;;;;;13.57;6.65;;;;;;;;;;5073218;28;20032;-74
2022/12/08 04:13:08;;;;;;;12.65;5.72;;;;;;;;;;5073920;28;20031;-74
2022/12/08 04:15:35;;;;;;;10.63;5.47;;;;;;;;;;5073583;28;20020;-74
2022/12/08 04:18:01;;;;;;;12.50;5.85;;;;;;;;;;5073431;28;20028;-74
2022/12/08 04:20:27;;;;;;;12.13;6.55;;;;;;;;;;5073362;28;20443;-74
2022/12/08 04:22:54;;;;;;;12.90;6.53;;;;;;;;;;5088911;28;20013;-74
2022/12/08 04:25:20;;;;;;;14.32;7.20;;;;;;;;;;5073012;28;20393;-74
2022/12/08 04:27:46;;;;;;;16.27;6.65;;;;;;;;;;5073357;28;20024;-73
2022/12/08 04:30:13;;;;;;;14.15;7.03;;;;;;;;;;5073461;28;20110;-74
2022/12/08 04:32:39;;;;;;;12.68;7.00;;;;;;;;;;5073462;28;20032;-74
2022/12/08 04:35:05;;;;;;;11.90;5.82;;;;;;;;;;5072971;28;20078;-74
2022/12/08 04:37:32;;;;;;;15.15;6.93;;;;;;;;;;5073052;28;20041;-74
2022/12/08 04:39:58;;;;;;;14.00;7.15;;;;;;;;;;5072991;28;20044;-74
2022/12/08 04:42:24;;;;;;;19.05;9.15;;;;;;;;;;5072809;28;20404;-74
2022/12/08 04:44:51;;;;;;;13.27;6.35;;;;;;;;;;5072987;28;20028;-74
2022/12/08 04:47:17;;;;;;;14.52;6.70;;;;;;;;;;5072845;28;20440;-74
2022/12/08 04:49:43;;;;;;;14.20;7.28;;;;;;;;;;5072959;28;20024;-73
2022/12/08 04:52:10;;;;;;;11.63;6.13;;;;;;;;;;5072948;28;20141;-73
2022/12/08 04:54:36;;;;;;;10.02;5.53;;;;;;;;;;5072442;28;20034;-73
2022/12/08 04:57:02;;;;;;;11.15;5.43;;;;;;;;;;5072869;28;20032;-74
2022/12/08 04:59:29;;;;;;;11.52;6.20;;;;;;;;;;5072659;28;20404;-73
2022/12/08 05:01:55;;;;;;;11.75;5.22;;;;;;;;;;5072904;28;20012;-74
2022/12/08 05:04:21;;;;;;;12.93;5.22;;;;;;;;;;5072727;28;20039;-73
2022/12/08 05:06:47;;;;;;;12.05;5.90;;;;;;;;;;5072468;28;20081;-74
2022/12/08 05:09:14;;;;;;;11.93;5.30;;;;;;;;;;5072174;28;20025;-74
2022/12/08 05:11:40;;;;;;;11.80;5.82;;;;;;;;;;5072501;28;20035;-74
2022/12/08 05:14:10;;;;;;;8.85;5.20;;;;;;;;;;5072418;28;20420;-74
2022/12/08 05:16:37;;;;;;;10.93;4.93;;;;;;;;;;5072647;28;20028;-73
2022/12/08 05:19:04;;;;;;;10.20;5.03;;;;;;;;;;5072269;28;20503;-74
2022/12/08 05:21:30;;;;;;;9.65;5.18;;;;;;;;;;5072064;28;20044;-74
2022/12/08 05:23:57;;;;;;;10.70;4.97;;;;;;;;;;5072005;28;20397;-74
2022/12/08 05:26:23;;;;;;;10.85;4.50;;;;;;;;;;5072389;28;20031;-74
2022/12/08 05:28:50;;;;;;;9.05;4.93;;;;;;;;;;5072172;28;20029;-74
2022/12/08 05:31:16;;;;;;;11.52;4.60;;;;;;;;;;5072055;28;20400;-74
2022/12/08 05:33:43;;;;;;;11.60;4.60;;;;;;;;;;5072309;28;20035;-74
2022/12/08 05:36:12;;;;;;;9.85;4.68;;;;;;;;;;5072412;28;20023;-74
2022/12/08 05:38:39;;;;;;;11.13;4.47;;;;;;;;;;5071580;28;20532;-75
2022/12/08 05:41:07;;;;;;;9.75;4.88;;;;;;;;;;5070898;28;20035;-74
2022/12/08 05:43:33;;;;;;;8.98;4.70;;;;;;;;;;5072073;28;20017;-73
2022/12/08 05:45:59;;;;;;;9.88;5.00;;;;;;;;;;5071714;28;20036;-73
2022/12/08 05:48:26;;;;;;;8.98;4.70;;;;;;;;;;5072039;28;20396;-73
2022/12/08 05:50:52;;;;;;;11.13;4.70;;;;;;;;;;5071782;28;20030;-74
2022/12/08 05:53:19;;;;;;;8.52;4.90;;;;;;;;;;5072163;28;20029;-74
2022/12/08 05:55:46;;;;;;;10.30;4.65;;;;;;;;;;5071973;28;20511;-74
2022/12/08 05:58:17;;;;;;;9.05;4.88;;;;;;;;;;5072048;28;20036;-73
2022/12/08 06:00:44;;;;;;;11.02;5.25;;;;;;;;;;5071625;28;20029;-72
2022/12/08 06:03:11;;;;;;;9.18;4.68;;;;;;;;;;5071861;28;20029;-73
2022/12/08 06:05:37;;;;;;;8.73;4.57;;;;;;;;;;5071637;28;20032;-74
2022/12/08 06:08:04;;;;;;;12.52;5.50;;;;;;;;;;5072051;28;20021;-74
2022/12/08 06:10:30;;;;;;;6.18;4.00;;;;;;;;;;5072038;28;20027;-73
2022/12/08 06:12:56;;;;;;;8.98;4.47;;;;;;;;;;5071896;28;20021;-73
2022/12/08 06:15:23;;;;;;;8.15;4.10;;;;;;;;;;5070765;28;20044;-74
2022/12/08 06:17:49;;;;;;;7.45;4.15;;;;;;;;;;5071672;28;20443;-74
2022/12/08 06:20:15;;;;;;;7.63;4.22;;;;;;;;;;5071238;28;20037;-74
2022/12/08 06:22:42;;;;;;;10.90;5.20;;;;;;;;;;5087416;28;20058;-73
2022/12/08 06:25:08;;;;;;;9.95;5.13;;;;;;;;;;5072084;28;20043;-74
2022/12/08 06:27:35;;;;;;;8.88;4.50;;;;;;;;;;5071868;28;20024;-74
2022/12/08 06:30:01;;;;;;;31.98;11.55;;;;;;;;;;5071872;28;20024;-74
2022/12/08 06:32:27;;;;;;;54.50;20.73;;;;;;;;;;5071701;28;20051;-74
2022/12/08 06:34:54;;;;;;;28.17;11.65;;;;;;;;;;5071323;28;20029;-74
2022/12/08 06:37:20;;;;;;;20.88;8.57;;;;;;;;;;5071381;28;20408;-73
2022/12/08 06:39:46;;;;;;;16.88;7.05;;;;;;;;;;5071246;28;20036;-74
2022/12/08 06:44:57;;;;;;;16.27;7.30;;;;;;;;;;5071561;28;20029;-73
2022/12/08 06:47:24;;;;;;;25.05;11.43;;;;;;;;;;5071431;28;20025;-74
2022/12/08 06:49:50;;;;;;;14.25;6.72;;;;;;;;;;5070878;28;20020;-74
2022/12/08 06:52:16;;;;;;;17.42;9.25;;;;;;;;;;5070622;28;20036;-74
2022/12/08 06:54:43;;;;;;;19.45;8.90;;;;;;;;;;5071331;28;20025;-74
2022/12/08 06:57:09;;;;;;;13.38;7.68;;;;;;;;;;5087398;28;20036;-74
2022/12/08 06:59:36;;;;;;;13.02;7.40;;;;;;;;;;5074842;28;20021;-74
2022/12/08 07:02:02;;;;;;;14.73;7.75;;;;;;;;;;5075124;28;20077;-74
2022/12/08 07:04:28;;;;;;;14.27;8.35;;;;;;;;;;5074576;28;20021;-74
2022/12/08 07:06:55;;;;;;;24.73;11.27;;;;;;;;;;5074300;28;20017;-74
2022/12/08 07:09:21;;;;;;;17.88;9.23;;;;;;;;;;5060127;28;20032;-74
2022/12/08 07:11:47;;;;;;;17.85;9.65;;;;;;;;;;5065141;28;20051;-73
2022/12/08 07:14:14;;;;;;;18.88;9.32;;;;;;;;;;5054619;28;20020;-74
2022/12/08 07:16:40;;;;;;;20.90;9.25;;;;;;;;;;5053252;28;20025;-75
2022/12/08 07:19:06;;;;;;;18.63;9.48;;;;;;;;;;5074699;28;20025;-72
2022/12/08 07:21:33;;;;;;;45.00;17.25;;;;;;;;;;5062140;28;20044;-72
2022/12/08 07:23:59;;;;;;;33.53;13.50;;;;;;;;;;5059581;28;20393;-73
2022/12/08 07:26:26;;;;;;;27.63;11.85;;;;;;;;;;5073403;28;20026;-74
2022/12/08 07:28:52;;;;;;;27.65;12.60;;;;;;;;;;5073861;28;20028;-74
2022/12/08 07:31:20;;;;;;;41.50;20.02;;;;;;;;;;5072984;28;20017;-73
2022/12/08 07:33:46;;;;;;;27.95;13.43;;;;;;;;;;5072076;28;20024;-74
2022/12/08 07:36:13;;;;;;;46.13;22.67;;;;;;;;;;5072867;28;20031;-73
2022/12/08 07:38:39;;;;;;;31.17;17.20;;;;;;;;;;5072841;28;20056;-72
2022/12/08 07:41:05;;;;;;;22.10;11.27;;;;;;;;;;5071629;28;20047;-73
2022/12/08 07:43:32;;;;;;;20.33;11.98;;;;;;;;;;5055931;28;20032;-72
2022/12/08 07:45:58;;;;;;;21.27;11.48;;;;;;;;;;5064696;28;20367;-73
2022/12/08 07:48:25;;;;;;;20.42;10.98;;;;;;;;;;5073137;28;20020;-73
2022/12/08 07:50:51;;;;;;;19.05;8.70;;;;;;;;;;5073974;28;20019;-73
2022/12/08 07:53:17;;;;;;;17.08;8.45;;;;;;;;;;5073069;28;20024;-72
2022/12/08 07:55:44;;;;;;;19.98;8.32;;;;;;;;;;5072905;28;20017;-73
2022/12/08 07:58:10;;;;;;;17.60;8.52;;;;;;;;;;5062453;28;20039;-73
2022/12/08 08:00:37;;;;;;;17.88;9.52;;;;;;;;;;5073521;28;20063;-72
2022/12/08 08:03:03;;;;;;;24.35;12.70;;;;;;;;;;5072409;28;20017;-74
2022/12/08 08:05:29;;;;;;;18.85;10.45;;;;;;;;;;5073820;28;20040;-73
2022/12/08 08:07:55;;;;;;;11.05;5.65;;;;;;;;;;5073581;28;20021;-74
2022/12/08 08:10:22;;;;;;;14.13;6.90;;;;;;;;;;5072761;28;20031;-73
2022/12/08 08:12:48;;;;;;;13.60;7.95;;;;;;;;;;5072961;28;20813;-73
2022/12/08 08:15:16;;;;;;;12.70;7.88;;;;;;;;;;5073154;28;20059;-73
2022/12/08 08:17:42;;;;;;;19.55;11.23;;;;;;;;;;5072213;28;20544;-74
2022/12/08 08:20:09;;;;;;;35.38;19.08;;;;;;;;;;5072994;28;20037;-73
2022/12/08 08:22:35;;;;;;;23.27;11.70;;;;;;;;;;5072091;28;20032;-73
2022/12/08 08:25:02;;;;;;;12.43;6.72;;;;;;;;;;5072559;28;20035;-74
2022/12/08 08:27:28;;;;;;;12.43;6.88;;;;;;;;;;5072714;28;20031;-74
2022/12/08 08:29:54;;;;;;;9.80;5.65;;;;;;;;;;5072954;28;20039;-73
2022/12/08 08:32:21;;;;;;;9.85;5.15;;;;;;;;;;5072389;28;20021;-73
2022/12/08 08:34:47;;;;;;;8.57;5.18;;;;;;;;;;5072745;28;20504;-74
2022/12/08 08:37:13;;;;;;;9.30;5.00;;;;;;;;;;5072753;28;20037;-72
2022/12/08 08:39:41;;;;;;;8.25;5.60;;;;;;;;;;5073026;28;20031;-72
2022/12/08 08:42:08;;;;;;;13.43;6.85;;;;;;;;;;5072955;28;20032;-72
2022/12/08 08:44:34;;;;;;;10.85;6.45;;;;;;;;;;5072880;28;20023;-74
2022/12/08 08:47:00;;;;;;;10.98;6.22;;;;;;;;;;5072353;28;20032;-73
2022/12/08 08:49:27;;;;;;;13.80;8.00;;;;;;;;;;5072595;28;20489;-73
2022/12/08 08:51:53;;;;;;;12.23;5.93;;;;;;;;;;5072522;28;20020;-73
2022/12/08 08:54:19;;;;;;;12.00;6.40;;;;;;;;;;5072442;28;20031;-73
2022/12/08 08:56:47;;;;;;;11.57;6.38;;;;;;;;;;5071800;28;20054;-74
2022/12/08 08:59:13;;;;;;;11.40;6.18;;;;;;;;;;5072037;28;20020;-74
2022/12/08 09:01:39;;;;;;;9.02;5.43;;;;;;;;;;5068015;28;20075;-73
2022/12/08 09:04:06;;;;;;;9.07;5.70;;;;;;;;;;5070684;28;20024;-74
2022/12/08 09:06:32;;;;;;;9.52;5.70;;;;;;;;;;5072295;28;20035;-73
2022/12/08 09:08:58;;;;;;;8.63;5.20;;;;;;;;;;5072285;28;20016;-73
2022/12/08 09:11:25;;;;;;;10.85;5.97;;;;;;;;;;5072242;28;20032;-72
2022/12/08 09:13:51;;;;;;;8.43;5.57;;;;;;;;;;5071717;28;20438;-71
2022/12/08 09:16:18;;;;;;;13.77;6.53;;;;;;;;;;5070922;28;20413;-72
2022/12/08 09:18:45;;;;;;;10.98;5.85;;;;;;;;;;5072456;28;20031;-74
2022/12/08 09:21:19;;;;;;;9.77;5.57;;;;;;;;;;5071003;28;20028;-73
2022/12/08 09:23:45;;;;;;;10.65;5.22;;;;;;;;;;5071975;28;20027;-72
2022/12/08 09:26:11;;;;;;;10.82;5.93;;;;;;;;;;5071313;28;20031;-72
2022/12/08 09:28:38;;;;;;;12.25;6.70;;;;;;;;;;5071545;28;20021;-73
2022/12/08 09:31:04;;;;;;;8.18;5.45;;;;;;;;;;5070630;28;20027;-72
2022/12/08 09:33:30;;;;;;;8.70;5.35;;;;;;;;;;5072132;28;20031;-73
2022/12/08 09:36:01;;;;;;;16.02;4.90;;;;;;;;;;5071587;28;20028;-72
2022/12/08 09:38:27;;;;;;;8.80;4.50;;;;;;;;;;5071769;28;20041;-73
2022/12/08 09:40:55;;;;;;;11.05;5.50;;;;;;;;;;5071398;28;20055;-73
2022/12/08 09:43:40;;;;;;;9.23;5.47;;;;;;;;;;5069962;28;20024;-72
2022/12/08 09:46:09;;;;;;;8.43;5.35;;;;;;;;;;5071760;28;20033;-73
2022/12/08 09:48:38;;;;;;;11.20;5.30;;;;;;;;;;5071421;28;20017;-72
2022/12/08 09:51:05;;;;;;;12.02;7.20;;;;;;;;;;5071551;28;20028;-73
2022/12/08 09:53:50;;;;;;;33.10;16.55;;;;;;;;;;5071624;28;20389;-72
2022/12/08 09:56:19;;;;;;;20.60;10.27;;;;;;;;;;5067733;28;20024;-73
2022/12/08 09:58:50;;;;;;;23.33;9.88;;;;;;;;;;5070844;28;20027;-72
2022/12/08 10:01:18;;;;;;;13.40;7.30;;;;;;;;;;5071418;28;20507;-71
2022/12/08 10:03:45;;;;;;;8.18;5.15;;;;;;;;;;5070870;28;20490;-74
2022/12/08 10:06:40;;;;;;;9.07;5.68;;;;;;;;;;5071017;28;20493;-73
2022/12/08 10:09:22;;;;;;;9.43;4.80;;;;;;;;;;5037993;28;20045;-73
2022/12/08 10:11:51;;;;;;;8.10;5.00;;;;;;;;;;5063882;28;20012;-72
2022/12/08 10:14:31;;;;;;;9.07;4.72;;;;;;;;;;5071685;28;20028;-71
2022/12/08 10:17:00;;;;;;;9.15;4.63;;;;;;;;;;5071602;28;20020;-73
2022/12/08 10:19:27;;;;;;;7.72;5.00;;;;;;;;;;5071010;28;20389;-74
2022/12/08 10:21:53;;;;;;;9.95;4.32;;;;;;;;;;5061007;28;20043;-73
2022/12/08 10:24:31;;;;;;;6.55;4.00;;;;;;;;;;5070498;28;20497;-73
2022/12/08 10:26:58;;;;;;;7.03;4.50;;;;;;;;;;5051417;28;20029;-73
2022/12/08 10:29:24;;;;;;;12.38;5.68;;;;;;;;;;5074699;28;20578;-73
2022/12/08 10:31:50;;;;;;;6.93;4.68;;;;;;;;;;5072226;28;20020;-72
2022/12/08 10:34:26;;;;;;;8.35;4.57;;;;;;;;;;5075102;28;20046;-72
2022/12/08 10:36:57;;;;;;;7.88;4.60;;;;;;;;;;5075019;28;20043;-73
2022/12/08 10:39:31;;;;;;;6.78;4.60;;;;;;;;;;5072727;28;20504;-73
2022/12/08 10:42:21;;;;;;;8.20;4.82;;;;;;;;;;5066504;28;20524;-73
2022/12/08 10:44:54;;;;;;;7.07;4.75;;;;;;;;;;5057781;28;20025;-72
2022/12/08 10:47:22;;;;;;;7.43;5.03;;;;;;;;;;5072131;28;20046;-73
2022/12/08 10:50:05;;;;;;;8.40;4.78;;;;;;;;;;5074130;28;20398;-72
2022/12/08 10:52:31;;;;;;;7.97;4.70;;;;;;;;;;5074847;28;20032;-72
2022/12/08 10:55:00;;;;;;;10.23;5.65;;;;;;;;;;5074413;28;20030;-73
2022/12/08 10:57:26;;;;;;;10.15;6.30;;;;;;;;;;5074393;28;20013;-72
2022/12/08 10:59:55;;;;;;;10.50;5.63;;;;;;;;;;5073331;28;20032;-73
2022/12/08 11:02:22;;;;;;;8.80;5.07;;;;;;;;;;5073695;28;20032;-73
2022/12/08 11:04:57;;;;;;;7.32;4.63;;;;;;;;;;5072550;28;20027;-73
2022/12/08 11:07:24;;;;;;;23.73;11.20;;;;;;;;;;5074179;28;20341;-73
2022/12/08 11:09:54;;;;;;;20.75;8.70;;;;;;;;;;5073924;28;20489;-73
2022/12/08 11:12:21;;;;;;;18.40;9.05;;;;;;;;;;5072339;28;20452;-73
2022/12/08 11:14:54;;;;;;;15.52;8.57;;;;;;;;;;5073740;28;20035;-73
2022/12/08 11:17:26;;;;;;;13.85;7.55;;;;;;;;;;5074205;28;20028;-73
2022/12/08 11:19:55;;;;;;;16.73;7.72;;;;;;;;;;5073936;28;20393;-73
2022/12/08 11:22:31;;;;;;;10.25;7.15;;;;;;;;;;5073993;28;20047;-73
2022/12/08 11:25:02;;;;;;;10.65;6.40;;;;;;;;;;5073684;28;20038;-73
2022/12/08 11:27:29;;;;;;;12.32;6.28;;;;;;;;;;5073978;28;20763;-73
2022/12/08 11:29:55;;;;;;;14.02;6.70;;;;;;;;;;5074125;28;20031;-73
2022/12/08 11:32:22;;;;;;;11.07;5.57;;;;;;;;;;5061950;28;20025;-73
2022/12/08 11:34:57;;;;;;;9.32;5.43;;;;;;;;;;5052765;28;20032;-73
2022/12/08 11:37:35;;;;;;;13.98;5.63;;;;;;;;;;5053514;28;20041;-73
2022/12/08 11:40:05;;;;;;;12.05;4.68;;;;;;;;;;5053375;28;20029;-73
2022/12/08 11:42:37;;;;;;;6.80;4.50;;;;;;;;;;5070695;28;20505;-73
2022/12/08 11:45:11;;;;;;;9.90;4.40;;;;;;;;;;5072260;28;20431;-74
2022/12/08 11:47:43;;;;;;;9.68;4.53;;;;;;;;;;5073822;28;20024;-73
2022/12/08 11:50:27;;;;;;;8.35;5.13;;;;;;;;;;5073617;28;20028;-73
2022/12/08 11:52:55;;;;;;;11.13;5.70;;;;;;;;;;5073596;28;20049;-73
2022/12/08 11:55:30;;;;;;;13.82;6.70;;;;;;;;;;5071858;28;20028;-73
2022/12/08 11:57:59;;;;;;;9.07;5.60;;;;;;;;;;5073353;28;20028;-73
2022/12/08 12:00:25;;;;;;;34.53;14.02;;;;;;;;;;5064757;28;20029;-73
2022/12/08 12:02:58;;;;;;;30.08;12.48;;;;;;;;;;5053298;28;20033;-74
2022/12/08 12:05:41;;;;;;;23.98;9.85;;;;;;;;;;5052914;28;20029;-73
2022/12/08 12:08:13;;;;;;;14.38;7.45;;;;;;;;;;5052909;28;20394;-73
2022/12/08 12:10:39;;;;;;;17.85;9.60;;;;;;;;;;5053518;28;20031;-73
2022/12/08 12:13:05;;;;;;;18.17;9.90;;;;;;;;;;5053014;28;20024;-73
2022/12/08 12:15:45;;;;;;;13.73;7.93;;;;;;;;;;5052926;28;20021;-73
2022/12/08 12:18:12;;;;;;;12.02;7.25;;;;;;;;;;5053445;28;20021;-73
2022/12/08 12:20:52;;;;;;;13.02;7.00;;;;;;;;;;5053051;28;20033;-73
2022/12/08 12:23:37;;;;;;;17.45;7.75;;;;;;;;;;5051244;28;20411;-73
2022/12/08 12:26:06;;;;;;;14.23;6.97;;;;;;;;;;5053331;28;20028;-73
2022/12/08 12:28:41;;;;;;;10.02;5.50;;;;;;;;;;5053178;28;20025;-73
2022/12/08 12:31:12;;;;;;;13.13;7.75;;;;;;;;;;5051677;28;20036;-73
2022/12/08 12:33:39;;;;;;;29.30;13.50;;;;;;;;;;5052652;28;20021;-73
2022/12/08 12:36:07;;;;;;;11.48;6.15;;;;;;;;;;5052504;28;20027;-73
2022/12/08 12:39:08;;;;;;;12.45;5.60;;;;;;;;;;5052159;28;20055;-73
2022/12/08 12:41:54;;;;;;;18.02;9.98;;;;;;;;;;5060524;28;20036;-72
2022/12/08 12:44:22;;;;;;;19.33;10.70;;;;;;;;;;5071871;28;20032;-73
2022/12/08 12:46:49;;;;;;;16.30;8.98;;;;;;;;;;5070973;28;20308;-72
2022/12/08 12:49:33;;;;;;;16.40;7.28;;;;;;;;;;5071275;28;20046;-72
2022/12/08 12:52:00;;;;;;;10.25;6.35;;;;;;;;;;5097855;28;20035;-73
2022/12/08 12:54:28;;;;;;;16.65;6.10;;;;;;;;;;5072485;28;20031;-73
2022/12/08 12:57:12;;;;;;;19.10;10.65;;;;;;;;;;5071245;28;20019;-72
2022/12/08 12:59:51;;;;;;;12.93;8.32;;;;;;;;;;5067852;28;20489;-71
2022/12/08 13:02:19;;;;;;;13.20;7.85;;;;;;;;;;5071963;28;20032;-72
2022/12/08 13:04:53;;;;;;;15.30;7.20;;;;;;;;;;5071895;28;20389;-71
2022/12/08 13:07:24;;;;;;;15.82;7.53;;;;;;;;;;5070660;28;20032;-72
2022/12/08 13:10:13;;;;;;;15.13;8.20;;;;;;;;;;5071743;28;20030;-72
2022/12/08 13:12:39;;;;;;;15.20;7.75;;;;;;;;;;5070591;28;20029;-71
2022/12/08 13:15:06;;;;;;;16.63;8.15;;;;;;;;;;5068022;28;20040;-72
2022/12/08 13:17:34;;;;;;;21.77;8.25;;;;;;;;;;5069194;28;20024;-71
2022/12/08 13:20:04;;;;;;;13.90;7.20;;;;;;;;;;5068645;28;20030;-71
2022/12/08 13:22:49;;;;;;;14.02;7.28;;;;;;;;;;5067246;28;20374;-73
2022/12/08 13:25:34;;;;;;;17.40;7.72;;;;;;;;;;5067322;28;20050;-73
2022/12/08 13:28:08;;;;;;;13.43;7.38;;;;;;;;;;5068153;28;20019;-71
2022/12/08 13:30:42;;;;;;;16.88;8.65;;;;;;;;;;5068765;28;20024;-72
2022/12/08 13:33:14;;;;;;;17.23;8.23;;;;;;;;;;5069247;28;20016;-71
2022/12/08 13:35:44;;;;;;;15.50;8.90;;;;;;;;;;5070114;28;20449;-71
2022/12/08 13:38:15;;;;;;;15.02;8.40;;;;;;;;;;5070167;28;20051;-72
2022/12/08 13:40:43;;;;;;;16.92;8.43;;;;;;;;;;5070446;28;20040;-72
2022/12/08 13:43:15;;;;;;;16.80;7.85;;;;;;;;;;5070275;28;20025;-72
2022/12/08 13:45:43;;;;;;;20.25;8.43;;;;;;;;;;5070238;28;20378;-72
2022/12/08 13:48:20;;;;;;;16.20;8.45;;;;;;;;;;5070610;28;20021;-72
2022/12/08 13:51:05;;;;;;;16.58;6.70;;;;;;;;;;5069730;28;20572;-71
2022/12/08 13:53:37;;;;;;;16.20;7.60;;;;;;;;;;5070195;28;20024;-72
2022/12/08 13:56:03;;;;;;;11.82;5.90;;;;;;;;;;5068294;28;20024;-72
2022/12/08 13:58:35;;;;;;;15.65;6.55;;;;;;;;;;5069569;28;20031;-72
2022/12/08 14:01:07;;;;;;;9.75;5.40;;;;;;;;;;5070529;28;20044;-72
2022/12/08 14:03:57;;;;;;;11.95;5.25;;;;;;;;;;5071327;28;20025;-73
2022/12/08 14:06:31;;;;;;;10.23;5.90;;;;;;;;;;5064396;28;20044;-73
2022/12/08 14:08:59;;;;;;;9.60;5.65;;;;;;;;;;5075819;28;20009;-72
2022/12/08 14:11:33;;;;;;;11.27;5.32;;;;;;;;;;5075332;28;20489;-74
2022/12/08 14:14:01;;;;;;;8.73;5.25;;;;;;;;;;5075643;28;20043;-73
2022/12/08 14:16:29;;;;;;;27.92;10.27;;;;;;;;;;5074807;28;20120;-73
2022/12/08 14:19:03;;;;;;;22.50;9.18;;;;;;;;;;5074083;28;20028;-73
2022/12/08 14:21:29;;;;;;;22.50;11.05;;;;;;;;;;5074196;28;20033;-72
2022/12/08 14:24:00;;;;;;;19.17;7.93;;;;;;;;;;5062928;28;20036;-72
2022/12/08 14:26:30;;;;;;;19.77;8.27;;;;;;;;;;5063863;28;20039;-73
2022/12/08 14:28:56;;;;;;;34.67;12.70;;;;;;;;;;5055236;28;20035;-74
2022/12/08 14:31:22;;;;;;;36.80;13.90;;;;;;;;;;5069363;28;20081;-73
2022/12/08 14:33:49;;;;;;;32.05;14.18;;;;;;;;;;5074605;28;20024;-73
2022/12/08 14:36:15;;;;;;;39.80;16.33;;;;;;;;;;5074919;28;20031;-72
2022/12/08 14:38:42;;;;;;;37.13;13.65;;;;;;;;;;5074494;28;20049;-72
2022/12/08 14:41:10;;;;;;;38.55;15.13;;;;;;;;;;5074693;28;20047;-72
2022/12/08 14:43:36;;;;;;;31.15;13.40;;;;;;;;;;5074878;28;20024;-73
2022/12/08 14:46:05;;;;;;;24.05;12.38;;;;;;;;;;5073479;28;20027;-73
2022/12/08 14:48:37;;;;;;;26.20;10.60;;;;;;;;;;5072937;28;20074;-73
2022/12/08 14:51:03;;;;;;;27.50;10.68;;;;;;;;;;5073384;28;20028;-72
2022/12/08 14:53:36;;;;;;;16.58;9.15;;;;;;;;;;5074614;28;20024;-72